createdAt,value
2019-05-17T00:00:16.668Z,93.56
2019-05-17T00:03:02.567Z,93.39
2019-05-17T00:05:48.852Z,93.42
2019-05-17T00:08:38.072Z,93.79
2019-05-17T00:11:22.706Z,93.55
2019-05-17T00:14:09.072Z,93.54
2019-05-17T00:16:57.098Z,93.50
2019-05-17T00:19:42.839Z,93.55
2019-05-17T00:22:29.073Z,93.62
2019-05-17T00:25:16.748Z,93.01
2019-05-17T00:28:03.017Z,92.84
2019-05-17T00:30:49.251Z,92.56
2019-05-17T00:33:36.699Z,92.35
2019-05-17T00:36:23.217Z,92.01
2019-05-17T00:39:09.192Z,92.17
2019-05-17T00:41:57.288Z,92.64
2019-05-17T00:44:43.642Z,92.69
2019-05-17T00:47:29.961Z,92.89
2019-05-17T00:50:17.049Z,92.48
2019-05-17T00:53:03.807Z,92.62
2019-05-17T00:55:50.021Z,92.76
2019-05-17T00:58:37.077Z,92.34
2019-05-17T01:01:23.781Z,92.66
2019-05-17T01:04:10.196Z,92.49
2019-05-17T01:06:56.419Z,92.80
2019-05-17T01:09:42.277Z,92.50
2019-05-17T01:12:28.532Z,92.30
2019-05-17T01:15:16.862Z,91.78
2019-05-17T01:18:03.421Z,91.29
2019-05-17T01:20:49.757Z,91.78
2019-05-17T01:23:36.350Z,92.68
2019-05-17T01:26:22.497Z,92.52
2019-05-17T01:29:08.677Z,92.75
2019-05-17T01:31:57.036Z,93.52
2019-05-17T01:34:42.992Z,93.42
2019-05-17T01:37:29.366Z,93.65
2019-05-17T01:40:17.548Z,93.22
2019-05-17T01:43:03.776Z,92.90
2019-05-17T01:45:50.116Z,93.21
2019-05-17T01:48:36.684Z,92.93
2019-05-17T01:51:22.971Z,92.64
2019-05-17T01:54:09.361Z,92.32
2019-05-17T01:56:56.662Z,92.39
2019-05-17T01:59:43.072Z,92.78
2019-05-17T02:02:36.515Z,92.51
2019-05-17T02:05:22.601Z,92.08
2019-05-17T02:08:08.676Z,92.51
2019-05-17T02:10:57.218Z,92.24
2019-05-17T02:13:43.032Z,92.38
2019-05-17T02:16:29.111Z,92.36
2019-05-17T02:19:17.280Z,92.26
2019-05-17T02:22:02.824Z,92.09
2019-05-17T02:24:48.958Z,92.01
2019-05-17T02:27:40.899Z,92.25
2019-05-17T02:30:23.722Z,91.53
2019-05-17T02:33:12.645Z,91.54
2019-05-17T02:35:57.929Z,91.26
2019-05-17T02:38:43.958Z,91.23
2019-05-17T02:41:33.046Z,91.60
2019-05-17T02:44:18.282Z,91.86
2019-05-17T02:47:04.561Z,92.27
2019-05-17T02:49:52.559Z,91.83
2019-05-17T02:52:38.615Z,91.84
2019-05-17T02:55:24.829Z,91.96
2019-05-17T02:58:12.806Z,91.88
2019-05-17T03:00:59.166Z,92.42
2019-05-17T03:03:45.392Z,92.43
2019-05-17T03:06:32.878Z,92.26
2019-05-17T03:09:18.952Z,92.47
2019-05-17T03:12:05.194Z,92.30
2019-05-17T03:14:52.884Z,92.52
2019-05-17T03:17:42.934Z,92.11
2019-05-17T03:20:27.493Z,91.81
2019-05-17T03:23:13.744Z,92.08
2019-05-17T03:26:03.172Z,91.45
2019-05-17T03:28:47.924Z,91.68
2019-05-17T03:31:42.343Z,91.64
2019-05-17T03:34:26.267Z,91.47
2019-05-17T03:37:15.596Z,91.33
2019-05-17T03:39:58.551Z,91.58
2019-05-17T03:42:45.119Z,91.56
2019-05-17T03:45:34.000Z,91.61
2019-05-17T03:48:22.166Z,91.35
2019-05-17T03:51:08.284Z,91.33
2019-05-17T03:53:54.384Z,90.97
2019-05-17T03:56:42.747Z,90.82
2019-05-17T03:59:28.296Z,91.03
2019-05-17T04:02:14.661Z,90.65
2019-05-17T04:05:03.927Z,90.50
2019-05-17T04:07:48.975Z,90.80
2019-05-17T04:10:35.111Z,91.29
2019-05-17T04:13:23.534Z,90.90
2019-05-17T04:16:13.558Z,90.71
2019-05-17T04:18:57.910Z,90.53
2019-05-17T04:21:43.936Z,90.29
2019-05-17T04:24:32.483Z,90.39
2019-05-17T04:27:18.499Z,90.48
2019-05-17T04:30:04.732Z,89.69
2019-05-17T04:32:52.630Z,89.50
2019-05-17T04:35:39.072Z,89.25
2019-05-17T04:38:25.171Z,89.43
2019-05-17T04:41:13.290Z,89.56
2019-05-17T04:44:02.409Z,89.04
2019-05-17T04:46:47.918Z,89.02
2019-05-17T04:49:33.937Z,89.04
2019-05-17T04:52:22.811Z,88.67
2019-05-17T04:55:08.532Z,88.17
2019-05-17T04:57:55.122Z,89.06
2019-05-17T05:00:43.107Z,89.00
2019-05-17T05:03:32.414Z,87.43
2019-05-17T05:06:17.172Z,87.31
2019-05-17T05:09:05.590Z,86.95
2019-05-17T05:12:00.401Z,87.57
2019-05-17T05:14:39.807Z,88.39
2019-05-17T05:17:25.887Z,88.02
2019-05-17T05:20:13.098Z,88.89
2019-05-17T05:23:02.686Z,87.69
2019-05-17T05:25:48.327Z,88.08
2019-05-17T05:28:34.560Z,88.16
2019-05-17T05:31:22.636Z,88.44
2019-05-17T05:34:08.852Z,88.48
2019-05-17T05:36:55.247Z,89.04
2019-05-17T05:39:41.502Z,90.02
2019-05-17T05:42:27.792Z,90.18
2019-05-17T05:45:13.927Z,89.94
2019-05-17T05:48:01.877Z,89.33
2019-05-17T05:50:48.142Z,89.41
2019-05-17T05:53:34.366Z,89.53
2019-05-17T05:56:21.965Z,89.77
2019-05-17T05:59:08.229Z,89.29
2019-05-17T06:01:54.327Z,88.96
2019-05-17T06:04:42.375Z,88.74
2019-05-17T06:07:28.799Z,87.34
2019-05-17T06:10:16.577Z,87.11
2019-05-17T06:13:03.314Z,86.66
2019-05-17T06:15:51.627Z,85.55
2019-05-17T06:18:37.602Z,86.43
2019-05-17T06:21:23.672Z,86.38
2019-05-17T06:24:11.907Z,85.91
2019-05-17T06:26:58.106Z,84.37
2019-05-17T06:29:44.346Z,84.14
2019-05-17T06:32:31.668Z,83.50
2019-05-17T06:35:18.327Z,83.38
2019-05-17T06:38:04.611Z,83.78
2019-05-17T06:40:52.360Z,82.39
2019-05-17T06:43:38.715Z,83.63
2019-05-17T06:46:24.711Z,83.18
2019-05-17T06:49:11.753Z,83.42
2019-05-17T06:51:58.056Z,82.17
2019-05-17T06:54:44.272Z,82.67
2019-05-17T06:57:32.573Z,82.32
2019-05-17T07:00:23.500Z,82.35
2019-05-17T07:03:09.400Z,80.97
2019-05-17T07:05:56.981Z,82.19
2019-05-17T07:08:43.312Z,82.84
2019-05-17T07:11:30.368Z,82.08
2019-05-17T07:14:16.746Z,81.14
2019-05-17T07:17:03.019Z,82.14
2019-05-17T07:19:50.747Z,80.76
2019-05-17T07:22:40.457Z,80.67
2019-05-17T07:25:25.627Z,79.73
2019-05-17T07:28:11.677Z,80.02
2019-05-17T07:30:59.622Z,78.76
2019-05-17T07:33:45.911Z,77.64
2019-05-17T07:36:32.946Z,78.32
2019-05-17T07:39:20.438Z,76.82
2019-05-17T07:42:06.587Z,76.89
2019-05-17T07:44:52.781Z,79.12
2019-05-17T07:47:40.477Z,77.79
2019-05-17T07:50:29.198Z,78.18
2019-05-17T07:53:15.331Z,77.35
2019-05-17T07:56:01.439Z,78.22
2019-05-17T07:58:49.502Z,81.16
2019-05-17T08:01:35.791Z,78.53
2019-05-17T08:04:21.951Z,77.91
2019-05-17T08:07:10.845Z,77.32
2019-05-17T08:09:56.595Z,77.38
2019-05-17T08:12:50.623Z,77.76
2019-05-17T08:15:40.572Z,79.33
2019-05-17T08:18:29.462Z,78.24
2019-05-17T08:21:16.771Z,78.04
2019-05-17T08:24:03.097Z,77.19
2019-05-17T08:26:51.217Z,77.75
2019-05-17T08:29:37.388Z,76.85
2019-05-17T08:32:23.528Z,76.37
2019-05-17T08:35:11.231Z,76.66
2019-05-17T08:38:00.354Z,76.07
2019-05-17T08:40:45.735Z,76.30
2019-05-17T08:43:42.516Z,77.17
2019-05-17T08:46:20.221Z,76.98
2019-05-17T08:49:06.253Z,76.92
2019-05-17T08:51:52.307Z,76.26
2019-05-17T08:54:42.648Z,75.05
2019-05-17T08:57:26.355Z,77.02
2019-05-17T09:00:12.750Z,77.41
2019-05-17T09:03:00.071Z,75.17
2019-05-17T09:05:46.429Z,77.38
2019-05-17T09:08:32.686Z,76.92
2019-05-17T09:11:19.695Z,76.96
2019-05-17T09:14:06.027Z,75.60
2019-05-17T09:16:52.711Z,74.83
2019-05-17T09:19:39.489Z,78.18
2019-05-17T09:22:26.162Z,75.32
2019-05-17T09:25:18.467Z,76.41
2019-05-17T09:28:00.785Z,76.26
2019-05-17T09:30:46.892Z,76.12
2019-05-17T09:33:33.070Z,74.20
2019-05-17T09:36:20.457Z,75.35
2019-05-17T09:39:09.461Z,74.91
2019-05-17T09:41:56.256Z,73.87
2019-05-17T09:44:49.671Z,75.45
2019-05-17T09:47:36.344Z,75.19
2019-05-17T09:50:22.417Z,74.92
2019-05-17T09:53:10.821Z,74.50
2019-05-17T09:55:56.927Z,73.58
2019-05-17T09:58:43.356Z,72.59
2019-05-17T10:01:30.342Z,72.77
2019-05-17T10:04:16.956Z,71.33
2019-05-17T10:07:03.206Z,71.61
2019-05-17T10:09:50.314Z,72.02
2019-05-17T10:12:36.755Z,73.51
2019-05-17T10:15:25.163Z,70.20
2019-05-17T10:18:11.590Z,70.99
2019-05-17T10:21:05.302Z,72.02
2019-05-17T10:23:51.619Z,70.79
2019-05-17T10:26:37.671Z,72.27
2019-05-17T10:29:23.487Z,73.08
2019-05-17T10:32:10.459Z,71.95
2019-05-17T10:35:02.477Z,71.02
2019-05-17T10:37:52.068Z,72.10
2019-05-17T10:41:10.104Z,70.75
2019-05-17T10:43:59.439Z,71.34
2019-05-17T10:46:45.800Z,70.80
2019-05-17T10:49:34.168Z,70.06
2019-05-17T10:52:29.973Z,70.55
2019-05-17T10:55:20.006Z,69.99
2019-05-17T10:58:10.022Z,71.60
2019-05-17T11:04:16.106Z,68.35
2019-05-17T11:07:02.431Z,70.46
2019-05-17T11:09:50.910Z,69.21
2019-05-17T11:12:45.565Z,69.33
2019-05-17T11:15:31.842Z,70.04
2019-05-17T11:18:19.473Z,69.98
2019-05-17T11:21:08.614Z,69.65
2019-05-17T11:24:05.757Z,69.83
2019-05-17T11:26:51.996Z,68.26
2019-05-17T11:29:46.977Z,69.17
2019-05-17T11:32:33.342Z,66.80
2019-05-17T11:35:27.467Z,67.34
2019-05-17T11:47:19.326Z,67.91
2019-05-17T11:51:05.517Z,68.86
2019-05-17T11:58:48.316Z,69.77
2019-05-17T12:01:36.416Z,68.97
2019-05-17T12:04:56.897Z,68.60
2019-05-17T12:07:44.452Z,68.20
2019-05-17T12:10:31.143Z,69.27
2019-05-17T12:13:19.030Z,67.55
2019-05-17T12:16:06.190Z,67.48
2019-05-17T12:18:57.582Z,67.03
2019-05-17T12:21:44.231Z,69.46
2019-05-17T12:24:31.438Z,68.14
2019-05-17T12:27:17.669Z,68.10
2019-05-17T12:30:04.752Z,68.90
2019-05-17T12:32:50.601Z,68.58
2019-05-17T12:35:36.796Z,68.64
2019-05-17T12:38:22.991Z,68.49
2019-05-17T12:41:14.507Z,67.79
2019-05-17T12:44:01.744Z,65.66
2019-05-17T12:46:48.885Z,67.42
2019-05-17T12:49:34.976Z,67.75
2019-05-17T12:52:27.137Z,67.31
2019-05-17T12:55:13.513Z,67.15
2019-05-17T12:57:59.617Z,68.50
2019-05-17T13:00:45.846Z,66.24
2019-05-17T13:03:36.912Z,66.92
2019-05-17T13:06:26.478Z,66.18
2019-05-17T13:09:30.105Z,66.30
2019-05-17T13:12:58.877Z,64.11
2019-05-17T13:15:54.105Z,67.57
2019-05-17T13:18:49.947Z,67.22
2019-05-17T13:21:39.433Z,65.85
2019-05-17T13:24:27.871Z,67.76
2019-05-17T13:27:17.847Z,67.84
2019-05-17T13:30:08.864Z,67.76
2019-05-17T13:32:58.132Z,66.13
2019-05-17T13:35:45.507Z,66.92
2019-05-17T13:38:32.131Z,66.10
2019-05-17T13:41:22.428Z,65.29
2019-05-17T13:44:14.501Z,64.90
2019-05-17T13:47:01.543Z,64.19
2019-05-17T13:49:50.029Z,65.51
2019-05-17T13:52:38.509Z,66.04
2019-05-17T13:55:24.533Z,65.74
2019-05-17T13:58:12.513Z,66.47
2019-05-17T14:00:59.157Z,67.83
2019-05-17T14:03:46.522Z,68.27
2019-05-17T14:06:40.031Z,67.82
2019-05-17T14:09:26.537Z,67.38
2019-05-17T14:12:12.817Z,67.19
2019-05-17T14:14:59.622Z,67.17
2019-05-17T14:17:47.678Z,67.02
2019-05-17T14:20:34.596Z,67.26
2019-05-17T14:23:20.767Z,67.80
2019-05-17T14:26:10.688Z,66.85
2019-05-17T14:28:57.151Z,66.91
2019-05-17T14:31:44.909Z,65.60
2019-05-17T14:34:31.195Z,66.09
2019-05-17T14:37:17.694Z,65.71
2019-05-17T14:40:04.552Z,65.20
2019-05-17T14:42:50.925Z,65.61
2019-05-17T14:45:37.215Z,63.81
2019-05-17T14:48:23.266Z,64.50
2019-05-17T14:51:09.599Z,64.07
2019-05-17T14:53:55.554Z,64.75
2019-05-17T14:56:41.919Z,63.64
2019-05-17T14:59:28.044Z,63.46
2019-05-17T15:02:18.307Z,63.70
2019-05-17T15:05:11.713Z,64.80
2019-05-17T15:07:58.037Z,62.63
2019-05-17T15:10:44.199Z,63.66
2019-05-17T15:13:30.317Z,63.31
2019-05-17T15:16:19.252Z,64.07
2019-05-17T15:19:05.147Z,64.48
2019-05-17T15:21:51.443Z,63.32
2019-05-17T15:24:41.481Z,63.82
2019-05-17T15:27:29.056Z,63.16
2019-05-17T15:30:15.302Z,64.27
2019-05-17T15:33:01.199Z,63.48
2019-05-17T15:35:47.327Z,64.67
2019-05-17T15:38:33.536Z,63.59
2019-05-17T15:41:19.422Z,64.00
2019-05-17T15:44:05.852Z,61.47
2019-05-17T15:46:52.347Z,62.43
2019-05-17T15:49:38.709Z,62.46
2019-05-17T15:52:24.943Z,62.17
2019-05-17T15:55:11.471Z,62.59
2019-05-17T15:57:57.862Z,62.95
2019-05-17T16:00:44.079Z,62.38
2019-05-17T16:03:30.212Z,63.29
2019-05-17T16:06:16.128Z,61.65
2019-05-17T16:09:03.945Z,61.36
2019-05-17T16:11:49.810Z,60.26
2019-05-17T16:14:36.132Z,60.57
2019-05-17T16:17:22.430Z,60.67
2019-05-17T16:20:10.436Z,60.95
2019-05-17T16:22:56.742Z,62.22
2019-05-17T16:25:42.795Z,62.21
2019-05-17T16:28:28.897Z,62.66
2019-05-17T16:31:14.972Z,62.22
2019-05-17T16:34:01.283Z,63.51
2019-05-17T16:36:47.361Z,64.34
2019-05-17T16:39:33.587Z,64.97
2019-05-17T16:42:19.831Z,64.42
2019-05-17T16:45:08.012Z,64.86
2019-05-17T16:47:54.166Z,66.01
2019-05-17T16:50:40.568Z,65.68
2019-05-17T16:53:26.840Z,66.36
2019-05-17T16:56:13.026Z,66.14
2019-05-17T16:58:59.301Z,66.24
2019-05-17T17:01:45.311Z,66.33
2019-05-17T17:04:31.588Z,66.91
2019-05-17T17:07:17.915Z,67.44
2019-05-17T17:10:03.981Z,67.17
2019-05-17T17:12:50.069Z,66.44
2019-05-17T17:15:36.184Z,66.98
2019-05-17T17:18:22.308Z,67.61
2019-05-17T17:21:08.553Z,67.27
2019-05-17T17:23:54.723Z,67.13
2019-05-17T17:26:40.912Z,66.92
2019-05-17T17:29:30.644Z,67.20
2019-05-17T17:32:21.494Z,67.99
2019-05-17T17:35:05.992Z,67.50
2019-05-17T17:37:52.143Z,67.58
2019-05-17T17:40:41.204Z,67.16
2019-05-17T17:43:30.381Z,67.51
2019-05-17T17:46:16.886Z,67.43
2019-05-17T17:49:03.180Z,67.73
2019-05-17T17:51:52.404Z,67.83
2019-05-17T17:54:38.536Z,67.93
2019-05-17T17:57:24.750Z,67.51
2019-05-17T18:00:16.823Z,68.62
2019-05-17T18:03:06.556Z,68.44
2019-05-17T18:05:54.131Z,69.12
2019-05-17T18:08:45.156Z,69.35
2019-05-17T18:11:30.966Z,69.44
2019-05-17T18:14:17.281Z,70.71
2019-05-17T18:17:08.130Z,70.42
2019-05-17T18:19:57.731Z,70.94
2019-05-17T18:22:46.762Z,71.39
2019-05-17T18:25:33.181Z,71.06
2019-05-17T18:28:20.351Z,71.85
2019-05-17T18:31:06.975Z,72.37
2019-05-17T18:34:01.273Z,72.86
2019-05-17T18:36:48.243Z,73.23
2019-05-17T18:39:34.784Z,73.10
2019-05-17T18:42:21.396Z,73.40
2019-05-17T18:45:08.086Z,74.06
2019-05-17T18:47:54.105Z,73.84
2019-05-17T18:50:40.298Z,74.34
2019-05-17T18:53:26.211Z,74.58
2019-05-17T18:56:12.451Z,74.43
2019-05-17T18:58:58.507Z,74.26
2019-05-17T19:01:44.781Z,74.71
2019-05-17T19:04:31.092Z,74.88
2019-05-17T19:07:17.311Z,75.02
2019-05-17T19:10:03.967Z,75.06
2019-05-17T19:12:50.352Z,75.21
2019-05-17T19:15:36.371Z,75.06
2019-05-17T19:18:22.426Z,75.44
2019-05-17T19:21:08.560Z,75.47
2019-05-17T19:23:54.696Z,75.75
2019-05-17T19:26:40.891Z,75.84
2019-05-17T19:29:27.061Z,77.19
2019-05-17T19:32:13.128Z,77.96
2019-05-17T19:34:59.526Z,79.26
2019-05-17T19:37:45.515Z,79.90
2019-05-17T19:40:31.699Z,80.81
2019-05-17T19:43:17.977Z,80.94
2019-05-17T19:46:04.286Z,81.56
2019-05-17T19:48:50.449Z,81.54
2019-05-17T19:51:37.745Z,81.78
2019-05-17T19:54:23.859Z,81.71
2019-05-17T19:57:10.071Z,81.90
2019-05-17T19:59:56.077Z,81.79
2019-05-17T20:02:42.306Z,82.79
2019-05-17T20:05:28.548Z,82.80
2019-05-17T20:08:14.567Z,82.88
2019-05-17T20:11:02.996Z,83.16
2019-05-17T20:13:49.299Z,82.95
2019-05-17T20:16:35.482Z,82.16
2019-05-17T20:19:21.501Z,81.83
2019-05-17T20:22:07.817Z,82.12
2019-05-17T20:24:53.876Z,82.37
2019-05-17T20:27:39.945Z,82.79
2019-05-17T20:30:26.201Z,83.63
2019-05-17T20:33:12.620Z,83.37
2019-05-17T20:35:58.640Z,83.25
2019-05-17T20:38:44.909Z,83.28
2019-05-17T20:41:35.551Z,82.43
2019-05-17T20:44:21.877Z,81.27
2019-05-17T20:47:10.118Z,80.08
2019-05-17T20:49:59.251Z,79.51
2019-05-17T20:52:45.461Z,82.53
2019-05-17T20:55:31.507Z,82.91
2019-05-17T20:58:17.822Z,83.33
2019-05-17T21:01:04.213Z,83.53
2019-05-17T21:03:55.015Z,83.95
2019-05-17T21:06:41.458Z,84.56
2019-05-17T21:09:29.101Z,84.40
2019-05-17T21:12:15.865Z,84.23
2019-05-17T21:15:03.042Z,84.33
2019-05-17T21:17:49.605Z,84.86
2019-05-17T21:20:38.815Z,84.45
2019-05-17T21:23:25.401Z,83.97
2019-05-17T21:26:12.076Z,84.48
2019-05-17T21:28:58.305Z,85.12
2019-05-17T21:31:44.456Z,84.81
2019-05-17T21:34:32.568Z,84.28
2019-05-17T21:37:18.460Z,84.16
2019-05-17T21:40:05.382Z,84.01
2019-05-17T21:42:51.324Z,84.18
2019-05-17T21:45:37.475Z,83.44
2019-05-17T21:48:23.736Z,85.95
2019-05-17T21:51:10.051Z,86.21
2019-05-17T21:53:56.262Z,86.34
2019-05-17T21:56:42.445Z,86.27
2019-05-17T21:59:28.865Z,86.74
2019-05-17T22:02:14.877Z,86.04
2019-05-17T22:05:01.172Z,85.67
2019-05-17T22:07:47.324Z,85.62
2019-05-17T22:10:33.385Z,85.39
2019-05-17T22:13:19.501Z,84.97
2019-05-17T22:16:18.478Z,85.04
2019-05-17T22:18:53.856Z,84.91
2019-05-17T22:21:40.106Z,84.99
2019-05-17T22:24:26.281Z,84.90
2019-05-17T22:27:12.224Z,84.90
2019-05-17T22:29:58.500Z,85.18
2019-05-17T22:32:44.645Z,86.08
2019-05-17T22:35:30.656Z,86.41
2019-05-17T22:38:16.889Z,86.25
2019-05-17T22:41:05.889Z,86.44
2019-05-17T22:43:52.235Z,86.75
2019-05-17T22:46:41.631Z,87.60
2019-05-17T22:49:27.603Z,85.41
2019-05-17T22:52:13.701Z,85.11
2019-05-17T22:55:00.006Z,83.69
2019-05-17T22:57:45.985Z,82.72
2019-05-17T23:00:32.374Z,83.56
2019-05-17T23:03:18.475Z,82.79
2019-05-17T23:06:04.820Z,83.52
2019-05-17T23:08:51.361Z,82.27
2019-05-17T23:11:37.502Z,82.45
2019-05-17T23:14:23.581Z,83.13
2019-05-17T23:17:09.670Z,83.64
2019-05-17T23:19:55.872Z,83.79
2019-05-17T23:22:41.947Z,83.67
2019-05-17T23:25:28.338Z,83.64
2019-05-17T23:28:14.596Z,84.03
2019-05-17T23:31:00.785Z,84.39
2019-05-17T23:33:51.046Z,84.09
2019-05-17T23:36:39.351Z,84.27
2019-05-17T23:39:25.445Z,84.89
2019-05-17T23:42:11.535Z,85.57
2019-05-17T23:44:57.901Z,85.94
2019-05-17T23:47:46.005Z,86.58
2019-05-17T23:50:32.271Z,86.54
2019-05-17T23:53:20.381Z,86.57
2019-05-17T23:56:11.970Z,86.29
2019-05-17T23:59:05.417Z,86.33
